Time;durP1;ratioP1;P1;durP2;ratioP2;P2;SDS_P1;SDS_P2;PMS_P1;PMS_P2;Temp;Humidity;BMP_temperature;BMP_pressure;BME280_temperature;BME280_humidity;BME280_pressure;Samples;Min_cycle;Max_cycle;Signal;HPM_P1;HPM_P2
2024/02/12 00:01:13;;;;;;;;;;;;;;;7.95;93.74;97924.81;5115308;28;19943;-65
2024/02/12 00:03:48;;;;;;;;;;;;;;;7.89;93.89;97913.94;5115112;28;19920;-65
2024/02/12 00:06:17;;;;;;;;;;;;;;;7.87;93.52;97915.66;5114950;28;19926;-64
2024/02/12 00:08:46;;;;;;;;;;;;;;;7.86;94.01;97914.81;5114070;28;20025;-64
2024/02/12 00:11:15;;;;;;;;;;;;;;;7.87;93.19;97925.84;5115244;28;19942;-64
2024/02/12 00:13:43;;;;;;;;;;;;;;;7.83;93.13;97926.72;5114745;28;20014;-64
2024/02/12 00:16:12;;;;;;;;;;;;;;;7.79;93.95;97923.44;5115166;28;19963;-64
2024/02/12 00:18:40;;;;;;;;;;;;;;;7.77;93.15;97930.25;5115070;28;19979;-64
2024/02/12 00:21:11;;;;;;;;;;;;;;;7.74;93.31;97930.28;5113758;28;19920;-64
2024/02/12 00:23:43;;;;;;;;;;;;;;;7.76;93.66;97928.56;5114389;28;19923;-64
2024/02/12 00:26:12;;;;;;;;;;;;;;;7.76;93.57;97933.63;5113775;28;19962;-65
2024/02/12 00:28:41;;;;;;;;;;;;;;;7.70;93.73;97927.84;5114768;28;19924;-64
2024/02/12 00:31:12;;;;;;;;;;;;;;;7.67;93.60;97938.03;5113793;28;19927;-64
2024/02/12 00:33:41;;;;;;;;;;;;;;;7.64;94.12;97941.47;5114895;28;19919;-64
2024/02/12 00:36:11;;;;;;;;;;;;;;;7.66;93.75;97936.34;5114469;28;19926;-64
2024/02/12 00:38:39;;;;;;;;;;;;;;;7.63;93.40;97941.50;5115095;28;19923;-64
2024/02/12 00:41:12;;;;;;;;;;;;;;;7.62;93.03;97935.56;5114751;28;19927;-64
2024/02/12 00:43:41;;;;;;;;;;;;;;;7.59;93.36;97935.63;5114661;28;19973;-64
2024/02/12 00:46:10;;;;;;;;;;;;;;;7.59;93.57;97930.53;5114694;28;19974;-64
2024/02/12 00:48:39;;;;;;;;;;;;;;;7.60;93.03;97926.31;5114614;28;19927;-63
2024/02/12 00:51:07;;;;;;;;;;;;;;;7.62;93.88;97930.50;5096529;28;19972;-64
2024/02/12 00:53:38;;;;;;;;;;;;;;;7.63;93.76;97929.63;5113324;28;19920;-64
2024/02/12 00:56:07;;;;;;;;;;;;;;;7.61;93.40;97926.28;5114722;28;19924;-64
2024/02/12 00:58:36;;;;;;;;;;;;;;;7.63;93.57;97927.06;5113479;28;19919;-64
2024/02/12 01:01:04;;;;;;;;;;;;;;;7.61;93.39;97928.81;5113693;28;19919;-64
2024/02/12 01:03:47;;;;;;;;;;;;;;;7.58;93.74;97933.13;5114470;28;20022;-64
2024/02/12 01:06:16;;;;;;;;;;;;;;;7.55;93.96;97923.00;5114594;28;19926;-64
2024/02/12 01:08:47;;;;;;;;;;;;;;;7.49;93.54;97923.94;5114666;28;19920;-64
2024/02/12 01:11:17;;;;;;;;;;;;;;;7.51;93.73;97921.41;5112887;28;19924;-64
2024/02/12 01:13:46;;;;;;;;;;;;;;;7.48;93.45;97921.44;5114466;28;19920;-64
2024/02/12 01:16:18;;;;;;;;;;;;;;;7.47;93.88;97918.06;5114148;28;20018;-64
2024/02/12 01:18:46;;;;;;;;;;;;;;;7.44;93.95;97916.41;5114503;28;19969;-64
2024/02/12 01:21:17;;;;;;;;;;;;;;;7.45;93.43;97912.19;5114012;28;19920;-64
2024/02/12 01:23:47;;;;;;;;;;;;;;;7.50;94.06;97920.56;5114175;28;19927;-64
2024/02/12 01:26:15;;;;;;;;;;;;;;;7.53;94.31;97917.97;5112888;28;19985;-64
2024/02/12 01:28:44;;;;;;;;;;;;;;;7.52;93.75;97923.91;5112826;28;20377;-64
2024/02/12 01:31:17;;;;;;;;;;;;;;;7.49;93.73;97918.03;5113463;28;20085;-63
2024/02/12 01:33:47;;;;;;;;;;;;;;;7.49;93.84;97918.88;5114666;28;19920;-64
2024/02/12 01:36:16;;;;;;;;;;;;;;;7.49;93.48;97918.03;5114178;28;20014;-64
2024/02/12 01:38:45;;;;;;;;;;;;;;;7.49;93.59;97920.56;5114270;28;19998;-64
2024/02/12 01:41:16;;;;;;;;;;;;;;;7.52;94.18;97916.28;5114205;28;19924;-63
2024/02/12 01:43:45;;;;;;;;;;;;;;;7.48;92.97;97914.66;5118091;28;20013;-64
2024/02/12 01:46:13;;;;;;;;;;;;;;;7.48;93.92;97917.22;5118211;28;19927;-64
2024/02/12 01:48:42;;;;;;;;;;;;;;;7.49;93.38;97915.47;5117972;28;19919;-64
2024/02/12 01:51:10;;;;;;;;;;;;;;;7.49;94.11;97923.09;5118764;28;19933;-64
2024/02/12 01:53:39;;;;;;;;;;;;;;;7.50;94.03;97915.47;5116714;28;19926;-64
2024/02/12 01:56:08;;;;;;;;;;;;;;;7.53;93.64;97920.50;5117986;28;19962;-63
2024/02/12 01:58:40;;;;;;;;;;;;;;;7.57;93.52;97919.59;5116681;28;19920;-64
2024/02/12 02:01:12;;;;;;;;;;;;;;;7.57;93.41;97913.66;5117697;28;19962;-64
2024/02/12 02:03:41;;;;;;;;;;;;;;;7.57;92.77;97911.97;5117726;28;19919;-64
2024/02/12 02:06:12;;;;;;;;;;;;;;;7.59;93.56;97920.38;5115934;28;19920;-64
2024/02/12 02:08:44;;;;;;;;;;;;;;;7.53;93.03;97920.50;5117302;28;20369;-64
2024/02/12 02:11:14;;;;;;;;;;;;;;;7.54;93.00;97927.25;5117857;28;19920;-63
2024/02/12 02:13:45;;;;;;;;;;;;;;;7.53;92.83;97924.75;5116037;28;20377;-64
2024/02/12 02:16:35;;;;;;;;;;;;;;;7.54;92.66;97927.25;5116984;28;19942;-64
2024/02/12 02:19:04;;;;;;;;;;;;;;;7.52;92.30;97933.22;5116172;28;19924;-64
2024/02/12 02:21:52;;;;;;;;;;;;;;;7.49;91.88;97925.63;5117120;28;19919;-64
2024/02/12 02:24:22;;;;;;;;;;;;;;;7.50;92.29;97925.63;5116937;28;20007;-64
2024/02/12 02:26:50;;;;;;;;;;;;;;;7.48;91.57;97929.91;5098442;28;20362;-64
2024/02/12 02:29:19;;;;;;;;;;;;;;;7.49;92.00;97923.94;5115985;28;19920;-63
2024/02/12 02:31:47;;;;;;;;;;;;;;;7.46;91.64;97921.47;5117127;28;19923;-64
2024/02/12 02:34:17;;;;;;;;;;;;;;;7.43;91.66;97924.06;5117116;28;19924;-64
2024/02/12 02:36:46;;;;;;;;;;;;;;;7.39;91.95;97924.94;5117211;28;19927;-64
2024/02/12 02:39:15;;;;;;;;;;;;;;;7.34;91.83;97929.28;5117019;28;20013;-64
2024/02/12 02:41:46;;;;;;;;;;;;;;;7.38;91.88;97928.38;5116869;28;19923;-63
2024/02/12 02:44:14;;;;;;;;;;;;;;;7.38;91.75;97930.91;5116099;28;19985;-63
2024/02/12 02:46:43;;;;;;;;;;;;;;;7.37;91.81;97934.28;5115224;28;19927;-64
2024/02/12 02:49:12;;;;;;;;;;;;;;;7.34;91.97;97947.06;5116764;28;19920;-64
2024/02/12 02:51:41;;;;;;;;;;;;;;;7.29;91.58;97938.66;5116752;28;20358;-64
2024/02/12 02:54:09;;;;;;;;;;;;;;;7.28;91.09;97942.06;5114877;28;19920;-63
2024/02/12 02:56:38;;;;;;;;;;;;;;;7.27;91.89;97943.75;5116430;28;19971;-64
2024/02/12 02:59:09;;;;;;;;;;;;;;;7.25;91.39;97949.72;5116526;28;19920;-64
2024/02/12 03:01:38;;;;;;;;;;;;;;;7.23;91.13;97947.22;5116836;28;19947;-64
2024/02/12 03:04:06;;;;;;;;;;;;;;;7.22;91.29;97950.59;5116778;28;19919;-64
2024/02/12 03:06:35;;;;;;;;;;;;;;;7.22;91.39;97954.84;5116400;28;19927;-63
2024/02/12 03:09:03;;;;;;;;;;;;;;;7.20;91.64;97959.09;5115428;28;19926;-64
2024/02/12 03:11:32;;;;;;;;;;;;;;;7.23;91.44;97961.59;5116676;28;20373;-64
2024/02/12 03:14:00;;;;;;;;;;;;;;;7.24;91.24;97966.66;5115155;28;19949;-64
2024/02/12 03:16:32;;;;;;;;;;;;;;;7.22;91.35;97967.53;5116084;28;19963;-64
2024/02/12 03:19:01;;;;;;;;;;;;;;;7.23;91.78;97967.50;5116201;28;19919;-64
2024/02/12 03:21:31;;;;;;;;;;;;;;;7.25;90.83;97964.94;5116645;28;20357;-63
2024/02/12 03:24:00;;;;;;;;;;;;;;;7.29;91.36;97971.66;5115787;28;19920;-64
2024/02/12 03:26:30;;;;;;;;;;;;;;;7.29;91.68;97977.53;5114614;28;19969;-64
2024/02/12 03:28:59;;;;;;;;;;;;;;;7.29;91.38;97971.66;5115920;28;19926;-64
2024/02/12 03:31:27;;;;;;;;;;;;;;;7.28;91.37;97980.97;5115590;28;19919;-64
2024/02/12 03:33:57;;;;;;;;;;;;;;;7.30;91.63;97978.38;5115840;28;19924;-64
2024/02/12 03:36:26;;;;;;;;;;;;;;;7.26;91.26;97981.84;5114207;28;19951;-64
2024/02/12 03:38:55;;;;;;;;;;;;;;;7.27;91.45;97978.47;5114778;28;19955;-64
2024/02/12 03:41:25;;;;;;;;;;;;;;;7.29;91.86;97981.81;5115998;28;19920;-64
2024/02/12 03:43:57;;;;;;;;;;;;;;;7.27;91.79;97981.81;5115670;28;20365;-64
2024/02/12 03:46:31;;;;;;;;;;;;;;;7.26;91.72;97982.69;5114283;28;19940;-64
2024/02/12 04:02:13;;;;;;;;;;;;;;;7.17;91.98;98004.81;5115400;28;19920;-64
2024/02/12 04:04:43;;;;;;;;;;;;;;;7.06;92.04;98004.09;5113688;28;19968;-64
2024/02/12 04:07:13;;;;;;;;;;;;;;;7.00;91.85;98010.13;5112901;28;19927;-64
2024/02/12 04:09:42;;;;;;;;;;;;;;;6.98;92.64;98000.84;5115260;28;19919;-64
2024/02/12 04:12:12;;;;;;;;;;;;;;;6.99;91.92;97997.44;5114884;28;19919;-64
2024/02/12 04:14:42;;;;;;;;;;;;;;;6.98;92.36;98006.75;5115127;28;20373;-64
2024/02/12 04:17:13;;;;;;;;;;;;;;;7.00;92.42;98009.28;5115216;28;19926;-64
2024/02/12 04:19:45;;;;;;;;;;;;;;;7.00;92.55;98005.06;5113925;28;20284;-64
2024/02/12 04:22:14;;;;;;;;;;;;;;;6.98;92.51;98003.41;5114685;28;19919;-64
2024/02/12 04:24:44;;;;;;;;;;;;;;;7.02;93.20;97998.25;5113405;28;19919;-64
2024/02/12 04:27:13;;;;;;;;;;;;;;;7.03;93.09;97999.09;5114917;28;20021;-64
2024/02/12 04:29:42;;;;;;;;;;;;;;;7.05;93.15;98003.28;5115172;28;20357;-64
2024/02/12 04:32:11;;;;;;;;;;;;;;;7.06;93.37;98004.09;5114681;28;20401;-64
2024/02/12 04:34:45;;;;;;;;;;;;;;;7.08;93.12;98003.22;5114942;28;19919;-64
2024/02/12 04:37:14;;;;;;;;;;;;;;;7.03;93.37;98004.97;5115551;28;19919;-64
2024/02/12 04:39:42;;;;;;;;;;;;;;;7.01;93.08;98001.63;5114517;28;19965;-64
2024/02/12 04:42:10;;;;;;;;;;;;;;;6.95;93.10;98005.97;5114491;28;19927;-64
2024/02/12 04:44:40;;;;;;;;;;;;;;;6.95;93.19;98006.81;5115045;28;20357;-64
2024/02/12 04:47:09;;;;;;;;;;;;;;;6.97;93.27;98009.31;5114280;28;19924;-64
2024/02/12 04:49:38;;;;;;;;;;;;;;;6.93;93.14;98012.75;5114764;28;19926;-63
2024/02/12 04:52:08;;;;;;;;;;;;;;;6.88;93.44;98014.50;5114674;28;19997;-64
2024/02/12 04:54:38;;;;;;;;;;;;;;;6.86;93.36;98022.16;5114391;28;19923;-63
2024/02/12 04:57:07;;;;;;;;;;;;;;;6.86;93.27;98021.31;5114638;28;19923;-64
2024/02/12 04:59:37;;;;;;;;;;;;;;;6.86;93.73;98021.31;5114695;28;19926;-64
2024/02/12 05:02:06;;;;;;;;;;;;;;;6.83;93.95;98026.41;5114478;28;19951;-64
2024/02/12 05:04:35;;;;;;;;;;;;;;;6.83;94.22;98027.25;5113335;28;19923;-64
2024/02/12 05:07:06;;;;;;;;;;;;;;;6.84;94.18;98023.03;5114333;28;19919;-64
2024/02/12 05:09:37;;;;;;;;;;;;;;;6.84;93.82;98023.03;5114639;28;19924;-64
2024/02/12 05:12:06;;;;;;;;;;;;;;;6.81;93.38;98028.13;5114762;28;19970;-64
2024/02/12 05:14:34;;;;;;;;;;;;;;;6.82;93.81;98029.78;5114571;28;20292;-64
2024/02/12 05:17:05;;;;;;;;;;;;;;;6.77;94.50;98029.03;5115930;28;19968;-64
2024/02/12 05:24:52;;;;;;;;;;;;;;;6.77;94.53;98031.56;5096612;28;19927;-64
2024/02/12 05:27:21;;;;;;;;;;;;;;;6.78;94.54;98038.28;5097899;28;20315;-64
2024/02/12 05:29:49;;;;;;;;;;;;;;;6.82;94.29;98029.78;5096629;28;19920;-64
2024/02/12 05:32:18;;;;;;;;;;;;;;;6.86;95.05;98031.44;5097856;28;19931;-64
2024/02/12 05:34:48;;;;;;;;;;;;;;;6.92;94.55;98026.28;5097793;28;20382;-64
2024/02/12 05:37:17;;;;;;;;;;;;;;;6.98;95.17;98038.91;5097803;28;19928;-64
2024/02/12 05:39:45;;;;;;;;;;;;;;;7.01;94.80;98033.75;5097727;28;19924;-63
2024/02/12 05:42:15;;;;;;;;;;;;;;;7.00;94.85;98035.47;5097730;28;20404;-64
2024/02/12 05:44:43;;;;;;;;;;;;;;;7.00;94.65;98029.56;5096343;28;20011;-64
2024/02/12 05:47:12;;;;;;;;;;;;;;;6.98;94.19;98036.34;5097275;28;19942;-64
2024/02/12 05:49:42;;;;;;;;;;;;;;;6.98;94.85;98036.34;5097418;28;19933;-64
2024/02/12 05:52:12;;;;;;;;;;;;;;;6.98;94.85;98043.97;5097425;28;19943;-64
2024/02/12 05:54:41;;;;;;;;;;;;;;;6.95;94.72;98051.59;5097319;28;19927;-64
2024/02/12 05:57:10;;;;;;;;;;;;;;;6.94;94.46;98054.97;5096081;28;19920;-64
2024/02/12 05:59:41;;;;;;;;;;;;;;;6.87;95.11;98048.31;5097335;28;19981;-64
2024/02/12 06:02:09;;;;;;;;;;;;;;;6.86;95.24;98054.25;5097377;28;20352;-64
2024/02/12 06:04:38;;;;;;;;;;;;;;;6.82;94.57;98062.75;5097171;28;19931;-64
2024/02/12 06:07:07;;;;;;;;;;;;;;;6.80;94.24;98062.78;5078880;28;19965;-64
2024/02/12 06:09:36;;;;;;;;;;;;;;;6.79;94.38;98070.41;5095858;28;19920;-64
2024/02/12 06:12:07;;;;;;;;;;;;;;;6.80;94.08;98061.94;5097434;28;19969;-64
2024/02/12 06:14:37;;;;;;;;;;;;;;;6.81;94.13;98066.16;5096766;28;20285;-64
2024/02/12 06:17:10;;;;;;;;;;;;;;;6.82;94.17;98077.94;5095817;28;19949;-63
2024/02/12 06:19:39;;;;;;;;;;;;;;;6.79;93.96;98071.22;5097307;28;19924;-64
2024/02/12 06:22:09;;;;;;;;;;;;;;;6.77;93.92;98077.19;5096871;28;20040;-64
2024/02/12 06:24:38;;;;;;;;;;;;;;;6.73;94.33;98081.44;5096499;28;19924;-64
2024/02/12 06:27:07;;;;;;;;;;;;;;;6.72;94.19;98078.06;5095324;28;20397;-64
2024/02/12 06:29:38;;;;;;;;;;;;;;;6.73;93.99;98089.06;5096102;28;19920;-64
2024/02/12 06:32:14;;;;;;;;;;;;;;;6.71;93.63;98073.88;5096445;28;20033;-63
2024/02/12 06:34:44;;;;;;;;;;;;;;;6.70;94.31;98072.19;5096706;28;19920;-64
2024/02/12 06:37:17;;;;;;;;;;;;;;;6.69;94.07;98077.28;5096353;28;19926;-63
2024/02/12 06:39:46;;;;;;;;;;;;;;;6.69;94.19;98088.22;5096184;28;20316;-64
2024/02/12 06:42:14;;;;;;;;;;;;;;;6.72;93.59;98083.13;5095362;28;19924;-64
2024/02/12 06:44:42;;;;;;;;;;;;;;;6.72;94.06;98095.81;5096231;28;20362;-64
2024/02/12 06:47:12;;;;;;;;;;;;;;;6.74;94.07;98091.56;5096221;28;19927;-64
2024/02/12 06:49:41;;;;;;;;;;;;;;;6.76;93.87;98096.63;5096696;28;19927;-64
2024/02/12 06:52:09;;;;;;;;;;;;;;;6.78;94.07;98094.06;5096582;28;19920;-64
2024/02/12 06:54:37;;;;;;;;;;;;;;;6.83;94.08;98102.47;5095950;28;19924;-64
2024/02/12 06:57:06;;;;;;;;;;;;;;;6.86;94.56;98104.97;5096291;28;19928;-64
2024/02/12 06:59:35;;;;;;;;;;;;;;;6.88;93.76;98113.41;5096257;28;19920;-64
2024/02/12 07:02:04;;;;;;;;;;;;;;;6.90;94.58;98109.13;5094848;28;19927;-64
2024/02/12 07:04:34;;;;;;;;;;;;;;;6.92;94.65;98112.50;5094949;28;19974;-64
2024/02/12 07:07:03;;;;;;;;;;;;;;;6.96;94.81;98114.97;5077275;28;19926;-64
2024/02/12 07:09:31;;;;;;;;;;;;;;;7.05;94.69;98119.13;5095901;28;19924;-64
2024/02/12 07:12:00;;;;;;;;;;;;;;;7.05;94.03;98108.97;5095912;28;19920;-64
2024/02/12 07:14:28;;;;;;;;;;;;;;;7.07;94.03;98122.47;5095990;28;19966;-65
2024/02/12 07:16:57;;;;;;;;;;;;;;;7.09;94.11;98120.75;5096092;28;19920;-64
2024/02/12 07:19:26;;;;;;;;;;;;;;;7.16;94.51;98122.34;5096023;28;19927;-64
2024/02/12 07:21:56;;;;;;;;;;;;;;;7.21;94.20;98116.38;5096031;28;20049;-64
2024/02/12 07:24:24;;;;;;;;;;;;;;;7.29;94.51;98119.63;5095093;28;20279;-64
2024/02/12 07:26:53;;;;;;;;;;;;;;;7.37;94.03;98122.91;5095557;28;19919;-64
2024/02/12 07:29:21;;;;;;;;;;;;;;;7.47;94.51;98123.63;5095891;28;20025;-64
2024/02/12 07:31:49;;;;;;;;;;;;;;;7.55;93.94;98121.84;5095514;28;20357;-64
2024/02/12 07:34:18;;;;;;;;;;;;;;;7.64;93.87;98124.25;5095824;28;19920;-64
2024/02/12 07:36:47;;;;;;;;;;;;;;;7.79;94.70;98129.09;5095585;28;20369;-64
2024/02/12 07:39:19;;;;;;;;;;;;;;;7.92;94.38;98135.66;5094894;28;20362;-64
2024/02/12 07:41:47;;;;;;;;;;;;;;;7.98;93.88;98133.03;5095355;28;19919;-64
2024/02/12 07:44:16;;;;;;;;;;;;;;;8.03;93.78;98131.28;5095070;28;19963;-64
2024/02/12 07:46:45;;;;;;;;;;;;;;;8.02;93.37;98129.59;5095229;28;20289;-65
2024/02/12 07:49:13;;;;;;;;;;;;;;;8.06;93.39;98136.28;5095159;28;19920;-64
2024/02/12 07:51:42;;;;;;;;;;;;;;;8.09;93.64;98138.78;5095228;28;19920;-64
2024/02/12 07:54:10;;;;;;;;;;;;;;;8.13;93.62;98137.88;5095280;28;20021;-64
2024/02/12 07:56:41;;;;;;;;;;;;;;;8.20;92.91;98145.41;5095169;28;19920;-64
2024/02/12 07:59:10;;;;;;;;;;;;;;;8.23;92.63;98148.72;5093391;28;19924;-64
2024/02/12 08:01:39;;;;;;;;;;;;;;;8.31;93.14;98146.09;5094660;28;19920;-64
2024/02/12 08:04:08;;;;;;;;;;;;;;;8.42;91.92;98146.78;5076442;28;19943;-64
2024/02/12 08:06:36;;;;;;;;;;;;;;;8.55;92.52;98138.03;5094686;28;19920;-64
2024/02/12 08:09:05;;;;;;;;;;;;;;;8.75;92.54;98139.38;5094543;28;20024;-64
2024/02/12 08:11:33;;;;;;;;;;;;;;;8.91;92.22;98145.00;5094572;28;19927;-64
2024/02/12 08:14:03;;;;;;;;;;;;;;;8.98;91.72;98146.56;5094812;28;19927;-64
2024/02/12 08:16:33;;;;;;;;;;;;;;;9.13;90.84;98153.91;5093428;28;19928;-64
2024/02/12 08:19:01;;;;;;;;;;;;;;;9.25;90.70;98151.13;5094836;28;19919;-64
2024/02/12 08:21:30;;;;;;;;;;;;;;;9.34;90.31;98145.84;5094671;28;19996;-64
2024/02/12 08:23:59;;;;;;;;;;;;;;;9.40;89.71;98155.91;5094082;28;19920;-64
2024/02/12 08:26:27;;;;;;;;;;;;;;;9.42;89.07;98151.63;5094678;28;19926;-64
2024/02/12 08:28:56;;;;;;;;;;;;;;;9.43;89.21;98155.84;5094445;28;19920;-64
2024/02/12 08:31:26;;;;;;;;;;;;;;;9.43;88.55;98155.00;5094579;28;20043;-64
2024/02/12 08:33:56;;;;;;;;;;;;;;;9.45;88.54;98158.38;5094532;28;19920;-64
2024/02/12 08:36:25;;;;;;;;;;;;;;;9.47;88.15;98159.16;5094531;28;19924;-64
2024/02/12 08:38:53;;;;;;;;;;;;;;;9.51;87.73;98167.56;5094409;28;19920;-64
2024/02/12 08:41:22;;;;;;;;;;;;;;;9.55;87.16;98169.19;5094320;28;19956;-65
2024/02/12 08:43:53;;;;;;;;;;;;;;;9.59;87.10;98169.09;5094155;28;19965;-64
2024/02/12 08:46:21;;;;;;;;;;;;;;;9.63;86.49;98172.41;5094591;28;20374;-64
2024/02/12 08:48:51;;;;;;;;;;;;;;;9.69;86.28;98173.13;5094161;28;19986;-64
2024/02/12 08:51:20;;;;;;;;;;;;;;;9.70;86.09;98179.03;5093311;28;20395;-64
2024/02/12 08:53:49;;;;;;;;;;;;;;;9.73;85.73;98178.97;5094216;28;20018;-64
2024/02/12 08:56:18;;;;;;;;;;;;;;;9.75;85.38;98178.09;5094218;28;19920;-64
2024/02/12 08:58:47;;;;;;;;;;;;;;;9.76;85.42;98186.56;5093959;28;19981;-64
2024/02/12 09:01:18;;;;;;;;;;;;;;;9.76;85.07;98186.56;5093737;28;20000;-64
2024/02/12 09:04:07;;;;;;;;;;;;;;;9.77;84.31;98185.69;5094058;28;20293;-65
2024/02/12 09:06:36;;;;;;;;;;;;;;;9.77;84.22;98183.13;5094093;28;19969;-64
2024/02/12 09:09:04;;;;;;;;;;;;;;;9.81;84.42;98187.31;5092792;28;19966;-63
2024/02/12 09:11:32;;;;;;;;;;;;;;;9.83;84.02;98190.66;5093791;28;20022;-65
2024/02/12 09:14:01;;;;;;;;;;;;;;;9.84;84.10;98187.22;5092899;28;20034;-63
2024/02/12 09:16:29;;;;;;;;;;;;;;;9.88;83.87;98188.84;5094055;28;19927;-65
2024/02/12 09:18:58;;;;;;;;;;;;;;;9.91;83.71;98196.44;5094421;28;20346;-64
2024/02/12 09:21:28;;;;;;;;;;;;;;;9.91;83.52;98199.78;5093894;28;19920;-64
2024/02/12 09:23:56;;;;;;;;;;;;;;;9.93;83.35;98195.50;5092218;28;19927;-64
2024/02/12 09:26:26;;;;;;;;;;;;;;;9.90;82.86;98194.75;5093971;28;20357;-66
2024/02/12 09:28:56;;;;;;;;;;;;;;;9.96;82.72;98202.25;5093619;28;20384;-65
2024/02/12 09:31:27;;;;;;;;;;;;;;;9.98;82.73;98206.44;5093916;28;19920;-64
2024/02/12 09:33:56;;;;;;;;;;;;;;;10.03;82.65;98206.31;5094378;28;19920;-65
2024/02/12 09:36:25;;;;;;;;;;;;;;;10.08;82.19;98212.16;5093750;28;20299;-64
2024/02/12 09:38:55;;;;;;;;;;;;;;;10.12;82.08;98207.88;5092855;28;19924;-63
2024/02/12 09:41:26;;;;;;;;;;;;;;;10.15;82.12;98208.63;5093861;28;20002;-64
2024/02/12 09:43:55;;;;;;;;;;;;;;;10.16;81.90;98215.41;5093726;28;19920;-64
2024/02/12 09:46:24;;;;;;;;;;;;;;;10.25;81.46;98215.19;5093661;28;20014;-64
2024/02/12 09:48:53;;;;;;;;;;;;;;;10.34;81.54;98220.09;5093242;28;20293;-64
2024/02/12 09:51:24;;;;;;;;;;;;;;;10.48;81.38;98223.16;5075612;28;20003;-63
2024/02/12 09:53:55;;;;;;;;;;;;;;;10.59;81.10;98220.34;5093600;28;19920;-64
2024/02/12 09:56:26;;;;;;;;;;;;;;;10.77;80.92;98215.63;5093701;28;19924;-63
2024/02/12 09:58:54;;;;;;;;;;;;;;;10.92;80.24;98214.41;5093760;28;19960;-64
2024/02/12 10:01:23;;;;;;;;;;;;;;;10.95;79.66;98218.59;5092171;28;19919;-64
2024/02/12 10:04:11;;;;;;;;;;;;;;;11.01;79.41;98208.22;5094356;28;19924;-63
2024/02/12 10:07:00;;;;;;;;;;;;;;;11.13;78.80;98203.63;5096564;28;19927;-64
2024/02/12 10:09:51;;;;;;;;;;;;;;;11.19;78.04;98198.38;5096750;28;19970;-63
2024/02/12 10:12:40;;;;;;;;;;;;;;;11.34;77.73;98195.41;5096459;28;19919;-64
2024/02/12 10:15:30;;;;;;;;;;;;;;;11.61;77.28;98196.34;5096794;28;19919;-63
2024/02/12 10:18:19;;;;;;;;;;;;;;;11.83;76.58;98189.72;5096661;28;20006;-64
2024/02/12 10:21:08;;;;;;;;;;;;;;;11.98;75.72;98201.22;5095970;28;20407;-64
2024/02/12 10:24:00;;;;;;;;;;;;;;;12.11;75.31;98202.53;5095377;28;19946;-64
2024/02/12 10:26:49;;;;;;;;;;;;;;;12.24;74.54;98203.00;5095474;28;20339;-63
2024/02/12 10:29:39;;;;;;;;;;;;;;;12.46;74.48;98189.47;5096354;28;19927;-64
2024/02/12 10:32:30;;;;;;;;;;;;;;;12.72;73.90;98192.00;5096430;28;19969;-65
2024/02/12 10:35:22;;;;;;;;;;;;;;;12.81;72.44;98190.88;5095304;28;20034;-63
2024/02/12 10:38:13;;;;;;;;;;;;;;;12.99;71.85;98189.41;5095968;28;19924;-64
2024/02/12 10:41:04;;;;;;;;;;;;;;;13.27;70.97;98185.84;5105051;28;20111;-64
2024/02/12 10:43:53;;;;;;;;;;;;;;;13.37;70.56;98184.66;5115475;28;19923;-64
2024/02/12 10:46:43;;;;;;;;;;;;;;;13.48;70.01;98183.44;5116435;28;19920;-64
2024/02/12 10:49:32;;;;;;;;;;;;;;;13.62;69.75;98184.59;5116334;28;20323;-64
2024/02/12 10:52:22;;;;;;;;;;;;;;;13.94;68.57;98178.25;5116151;28;19970;-64
2024/02/12 10:55:12;;;;;;;;;;;;;;;14.06;67.82;98182.91;5116199;28;19920;-64
2024/02/12 10:57:42;;;;;;;;;;;;;;;14.18;66.96;98179.84;5116643;28;19919;-64
2024/02/12 11:00:19;;;;;;;;;;;;;;;14.19;67.07;98183.25;5116741;28;19943;-64
2024/02/12 11:03:00;;;;;;;;;;;;;;;13.89;65.96;98182.72;5116340;28;19920;-64
2024/02/12 11:05:29;;;;;;;;;;;;;;;13.74;65.61;98183.31;5116613;28;20433;-64
2024/02/12 11:08:01;;;;;;;;;;;;;;;13.56;65.13;98178.84;5116059;28;19968;-64
2024/02/12 11:10:32;;;;;;;;;;;;;;;13.43;64.89;98179.31;5114462;28;19920;-64
2024/02/12 11:13:03;;;;;;;;;;;;;;;13.42;64.65;98164.81;5116481;28;20384;-64
2024/02/12 11:15:32;;;;;;;;;;;;;;;13.32;64.55;98183.97;5114677;28;19966;-63
2024/02/12 11:18:12;;;;;;;;;;;;;;;13.18;65.49;98183.63;5117131;28;19974;-64
2024/02/12 11:20:48;;;;;;;;;;;;;;;12.98;66.56;98180.88;5115877;27;20285;-64
2024/02/12 11:23:23;;;;;;;;;;;;;;;12.76;65.46;98172.28;5116073;28;19966;-63
2024/02/12 11:25:54;;;;;;;;;;;;;;;12.56;67.76;98175.50;5116485;28;19981;-64
2024/02/12 11:28:25;;;;;;;;;;;;;;;12.27;69.35;98173.03;5116361;28;20376;-63
2024/02/12 11:30:54;;;;;;;;;;;;;;;12.28;69.26;98163.66;5116313;28;19920;-65
2024/02/12 11:33:25;;;;;;;;;;;;;;;12.36;68.68;98177.00;5116187;28;20381;-65
2024/02/12 11:36:05;;;;;;;;;;;;;;;12.32;68.27;98170.31;5116291;28;19972;-64
2024/02/12 11:38:36;;;;;;;;;;;;;;;12.13;68.38;98174.34;5115633;28;19920;-65
2024/02/12 11:41:06;;;;;;;;;;;;;;;12.08;68.59;98177.91;5115448;28;20022;-64
2024/02/12 11:43:34;;;;;;;;;;;;;;;12.05;69.51;98180.53;5115729;28;19926;-64
2024/02/12 11:46:03;;;;;;;;;;;;;;;11.95;70.30;98181.69;5115274;28;19920;-65
2024/02/12 11:48:33;;;;;;;;;;;;;;;11.97;71.34;98185.03;5115630;28;19920;-64
2024/02/12 11:51:01;;;;;;;;;;;;;;;12.01;71.51;98184.09;5097368;28;19920;-65
2024/02/12 11:53:29;;;;;;;;;;;;;;;12.03;72.02;98184.88;5115823;28;19959;-64
2024/02/12 11:56:00;;;;;;;;;;;;;;;11.98;71.77;98186.72;5115151;28;20341;-64
2024/02/12 11:58:29;;;;;;;;;;;;;;;12.11;72.42;98182.06;5114196;28;19931;-65
2024/02/12 12:00:58;;;;;;;;;;;;;;;12.16;72.08;98181.94;5115070;28;20446;-65
2024/02/12 12:03:27;;;;;;;;;;;;;;;12.17;72.07;98183.59;5115237;28;19919;-65
2024/02/12 12:05:56;;;;;;;;;;;;;;;12.14;71.23;98181.16;5115377;28;20026;-65
2024/02/12 12:08:25;;;;;;;;;;;;;;;12.33;70.14;98172.00;5096526;28;19926;-64
2024/02/12 12:10:54;;;;;;;;;;;;;;;12.62;68.95;98175.28;5115312;28;19919;-64
2024/02/12 12:13:23;;;;;;;;;;;;;;;13.00;67.31;98178.28;5114133;28;19992;-65
2024/02/12 12:15:53;;;;;;;;;;;;;;;13.10;66.48;98175.38;5115194;28;19919;-65
2024/02/12 12:18:24;;;;;;;;;;;;;;;13.22;67.24;98176.69;5114934;28;19962;-65
2024/02/12 12:20:55;;;;;;;;;;;;;;;13.17;66.78;98179.38;5115307;28;19920;-64
2024/02/12 12:23:25;;;;;;;;;;;;;;;13.17;67.46;98176.81;5113596;28;19927;-64
2024/02/12 12:25:56;;;;;;;;;;;;;;;13.27;67.16;98190.97;5113277;28;20324;-65
2024/02/12 12:28:25;;;;;;;;;;;;;;;13.29;66.44;98178.94;5113517;28;19919;-65
2024/02/12 12:30:55;;;;;;;;;;;;;;;13.41;64.83;98181.06;5114448;28;20254;-65
2024/02/12 12:33:24;;;;;;;;;;;;;;;13.44;63.76;98178.41;5115009;28;19951;-65
2024/02/12 12:35:52;;;;;;;;;;;;;;;13.53;62.76;98181.53;5114912;28;19926;-65
2024/02/12 12:38:21;;;;;;;;;;;;;;;13.51;62.32;98183.31;5113666;28;20289;-65
2024/02/12 12:40:51;;;;;;;;;;;;;;;13.40;61.69;98187.09;5114827;28;19927;-66
2024/02/12 12:43:20;;;;;;;;;;;;;;;13.32;61.45;98178.84;5115016;28;19973;-66
2024/02/12 12:45:52;;;;;;;;;;;;;;;13.31;61.30;98182.31;5115037;28;19930;-65
2024/02/12 12:48:22;;;;;;;;;;;;;;;13.36;61.37;98185.53;5114701;28;19949;-65
2024/02/12 12:50:52;;;;;;;;;;;;;;;13.46;61.05;98180.09;5114422;28;19926;-65
2024/02/12 12:53:29;;;;;;;;;;;;;;;13.44;61.05;98173.28;5112241;28;20010;-65
2024/02/12 12:56:00;;;;;;;;;;;;;;;13.43;60.95;98171.63;5102718;28;20396;-65
2024/02/12 12:58:29;;;;;;;;;;;;;;;13.53;61.04;98181.53;5103863;28;19923;-65
2024/02/12 13:00:58;;;;;;;;;;;;;;;13.57;60.81;98173.69;5087618;28;19927;-65
2024/02/12 13:03:37;;;;;;;;;;;;;;;13.53;60.41;98181.53;5095151;28;20373;-65
2024/02/12 13:06:06;;;;;;;;;;;;;;;13.45;60.08;98179.25;5107872;28;19920;-65
2024/02/12 13:08:35;;;;;;;;;;;;;;;13.32;59.73;98183.97;5114752;28;19920;-65
2024/02/12 13:11:07;;;;;;;;;;;;;;;13.25;59.65;98192.75;5114667;28;19955;-65
2024/02/12 13:13:36;;;;;;;;;;;;;;;13.28;60.20;98190.09;5114227;28;19965;-66
2024/02/12 13:16:05;;;;;;;;;;;;;;;13.43;60.05;98184.44;5114478;28;20307;-65
2024/02/12 13:18:34;;;;;;;;;;;;;;;13.72;59.17;98192.78;5114370;28;19942;-65
2024/02/12 13:21:03;;;;;;;;;;;;;;;13.93;58.73;98197.09;5114967;28;19919;-66
2024/02/12 13:23:32;;;;;;;;;;;;;;;14.12;58.18;98198.06;5114438;28;19923;-65
2024/02/12 13:26:10;;;;;;;;;;;;;;;14.29;57.76;98190.53;5114580;28;19977;-64
2024/02/12 13:28:41;;;;;;;;;;;;;;;14.52;58.20;98193.06;5113896;28;19976;-65
2024/02/12 13:31:10;;;;;;;;;;;;;;;14.57;57.32;98196.28;5114356;28;19926;-66